Time;durP1;ratioP1;P1;durP2;ratioP2;P2;SDS_P1;SDS_P2;PMS_P1;PMS_P2;Temp;Humidity;BMP_temperature;BMP_pressure;BME280_temperature;BME280_humidity;BME280_pressure;Samples;Min_cycle;Max_cycle;Signal;HPM_P1;HPM_P2
2022/05/22 00:02:09;;;;;;;14.13;4.97;;;;;;;23.02;83.49;100276.66;5036726;28;20041;-85
2022/05/22 00:04:36;;;;;;;10.88;5.25;;;;;;;22.97;83.72;100277.41;5004040;28;20107;-85
2022/05/22 00:07:02;;;;;;;9.93;5.03;;;;;;;22.69;85.23;100274.84;5042147;28;20026;-85
2022/05/22 00:09:28;;;;;;;12.32;4.97;;;;;;;22.63;85.79;100276.63;5040701;28;20060;-83
2022/05/22 00:11:55;;;;;;;13.35;4.85;;;;;;;22.71;84.97;100272.69;5022931;28;20068;-83
2022/05/22 00:14:22;;;;;;;13.48;4.68;;;;;;;22.79;84.40;100264.19;5024676;28;20041;-84
2022/05/22 00:16:48;;;;;;;8.57;4.63;;;;;;;22.82;84.28;100260.16;5040738;28;20037;-84
2022/05/22 00:19:20;;;;;;;11.63;4.95;;;;;;;22.65;85.79;100262.84;5037340;28;20041;-83
2022/05/22 00:21:46;;;;;;;10.93;4.35;;;;;;;22.55;86.77;100257.28;5037896;28;20120;-85
2022/05/22 00:24:16;;;;;;;13.70;4.18;;;;;;;22.52;86.28;100260.50;5037143;28;20134;-84
2022/05/22 00:26:45;;;;;;;8.93;4.68;;;;;;;22.61;85.66;100269.81;5038534;28;20037;-84
2022/05/22 00:29:10;;;;;;;12.32;5.47;;;;;;;22.59;85.04;100261.97;5020562;28;20083;-83
2022/05/22 00:31:36;;;;;;;13.63;5.00;;;;;;;22.53;85.57;100256.72;5037347;28;20498;-85
2022/05/22 00:34:03;;;;;;;14.77;4.85;;;;;;;22.31;86.51;100258.50;5020010;28;20041;-85
2022/05/22 00:36:29;;;;;;;13.10;4.95;;;;;;;22.29;86.48;100257.94;5019877;28;20025;-85
2022/05/22 00:38:55;;;;;;;13.35;5.00;;;;;;;22.54;84.42;100255.66;5039887;28;20037;-84
2022/05/22 00:41:21;;;;;;;10.75;4.63;;;;;;;22.50;84.67;100262.63;5036344;28;20037;-84
2022/05/22 00:43:50;;;;;;;13.23;5.07;;;;;;;22.43;85.10;100265.50;5020518;28;20045;-84
2022/05/22 00:46:18;;;;;;;12.40;4.47;;;;;;;22.47;84.15;100263.91;5037542;28;20405;-85
2022/05/22 00:48:49;;;;;;;13.73;4.40;;;;;;;22.46;84.27;100264.19;5039380;28;20117;-84
2022/05/22 00:51:28;;;;;;;10.75;5.13;;;;;;;22.25;85.16;100256.81;5037061;28;20065;-85
2022/05/22 00:54:19;;;;;;;14.60;4.90;;;;;;;22.31;84.90;100261.22;5018035;28;20037;-84
2022/05/22 00:57:17;;;;;;;13.95;5.05;;;;;;;22.17;85.73;100265.31;5017579;28;20037;-84
2022/05/22 00:59:47;;;;;;;16.60;5.50;;;;;;;21.97;87.26;100261.22;5005452;28;20045;-84
2022/05/22 01:02:15;;;;;;;11.35;4.22;;;;;;;22.12;86.40;100266.84;5018622;28;20034;-84
2022/05/22 01:04:42;;;;;;;14.68;5.00;;;;;;;22.12;85.94;100264.16;5036375;28;20033;-84
2022/05/22 01:07:08;;;;;;;15.13;5.07;;;;;;;22.00;87.04;100258.03;5036389;28;20684;-84
2022/05/22 01:09:34;;;;;;;10.65;4.57;;;;;;;21.84;87.55;100253.34;5036224;28;20027;-84
2022/05/22 01:12:13;;;;;;;12.93;5.18;;;;;;;21.83;87.84;100250.91;5018898;28;20065;-86
2022/05/22 01:14:39;;;;;;;13.60;4.93;;;;;;;21.96;86.65;100254.16;5017548;28;20049;-88
2022/05/22 01:17:08;;;;;;;10.77;5.35;;;;;;;21.70;88.27;100260.13;5018395;28;20041;-87
2022/05/22 01:19:37;;;;;;;14.57;5.38;;;;;;;21.66;88.52;100258.97;5019305;28;20029;-93
2022/05/22 01:22:09;;;;;;;11.35;4.95;;;;;;;21.71;88.00;100256.34;5018265;28;20041;-90
2022/05/22 01:24:39;;;;;;;18.10;5.15;;;;;;;21.61;88.08;100256.16;5019491;28;20063;-90
2022/05/22 01:27:10;;;;;;;15.48;5.30;;;;;;;21.72;87.54;100258.00;5003766;28;20041;-87
2022/05/22 01:29:50;;;;;;;19.77;5.22;;;;;;;21.64;87.72;100255.69;5036284;28;20037;-89
2022/05/22 01:32:18;;;;;;;11.38;5.25;;;;;;;21.51;88.30;100246.00;5018679;28;20044;-88
2022/05/22 01:34:49;;;;;;;11.20;4.32;;;;;;;21.69;87.66;100253.09;5019021;28;20060;-87
2022/05/22 01:37:15;;;;;;;14.27;4.75;;;;;;;21.59;88.38;100247.50;5032628;28;20060;-87
2022/05/22 01:39:42;;;;;;;16.90;5.47;;;;;;;21.73;87.05;100246.16;5041456;28;20028;-89
2022/05/22 01:42:08;;;;;;;13.27;5.13;;;;;;;21.71;87.64;100256.34;5049817;28;20037;-87
2022/05/22 01:44:34;;;;;;;17.40;5.50;;;;;;;21.67;87.94;100249.00;5032967;28;20032;-86
2022/05/22 01:47:00;;;;;;;16.15;4.95;;;;;;;21.59;88.18;100242.94;5031572;28;20500;-85
2022/05/22 01:49:27;;;;;;;11.25;5.13;;;;;;;21.60;88.85;100241.06;5032492;28;20037;-86
2022/05/22 01:51:53;;;;;;;11.18;4.85;;;;;;;21.62;88.46;100239.75;5022475;28;20041;-85
2022/05/22 01:54:18;;;;;;;18.40;5.53;;;;;;;21.66;87.89;100237.38;5057295;28;20515;-86
2022/05/22 01:56:44;;;;;;;12.50;5.20;;;;;;;21.68;86.71;100232.56;5040463;28;20037;-86
2022/05/22 01:59:12;;;;;;;7.90;4.68;;;;;;;21.77;85.81;100225.72;5040667;28;20081;-85
2022/05/22 02:01:43;;;;;;;13.57;4.57;;;;;;;21.69;86.02;100231.50;5040269;28;20018;-89
2022/05/22 02:04:09;;;;;;;10.68;5.00;;;;;;;21.50;87.19;100233.59;5024458;28;20030;-85
2022/05/22 02:08:18;;;;;;;19.05;5.45;;;;;;;21.28;89.04;100237.19;5042093;28;20039;-85
2022/05/22 02:09:25;;;;;;;10.85;4.82;;;;;;;21.14;89.40;100228.53;5023581;28;20049;-84
2022/05/22 02:11:51;;;;;;;15.77;5.32;;;;;;;21.13;89.59;100224.19;5024265;28;20029;-87
2022/05/22 02:14:17;;;;;;;19.30;5.47;;;;;;;21.18;89.09;100228.88;5025753;28;20123;-87
2022/05/22 02:16:46;;;;;;;10.50;5.28;;;;;;;21.08;89.01;100227.56;5027704;28;20030;-87
2022/05/22 02:19:11;;;;;;;14.82;5.35;;;;;;;21.01;89.43;100224.19;5026994;28;20044;-86
2022/05/22 02:21:37;;;;;;;11.65;5.10;;;;;;;21.19;88.39;100220.53;5025338;28;20025;-86
2022/05/22 02:24:03;;;;;;;11.07;5.35;;;;;;;21.35;87.28;100213.56;5008348;28;20041;-88
2022/05/22 02:26:29;;;;;;;11.73;5.15;;;;;;;21.35;87.68;100225.19;5008279;28;20048;-87
2022/05/22 02:28:57;;;;;;;15.82;4.57;;;;;;;21.37;87.31;100222.25;5024119;28;20041;-87
2022/05/22 02:31:23;;;;;;;14.82;4.78;;;;;;;21.42;86.52;100225.03;5023342;28;20030;-90
2022/05/22 02:33:52;;;;;;;9.15;4.38;;;;;;;21.46;86.26;100226.22;5004832;28;20064;-88
2022/05/22 02:36:18;;;;;;;9.85;4.90;;;;;;;21.34;86.70;100225.44;5020255;28;20064;-88
2022/05/22 02:38:49;;;;;;;12.55;4.85;;;;;;;20.93;89.87;100229.94;5021335;28;20038;-90
2022/05/22 02:41:17;;;;;;;12.38;5.68;;;;;;;20.87;90.73;100236.28;5037436;28;20392;-88
2022/05/22 02:43:53;;;;;;;11.23;5.53;;;;;;;20.74;91.54;100233.00;5020036;28;20508;-92
2022/05/22 02:46:20;;;;;;;11.27;4.85;;;;;;;20.71;92.31;100231.63;5019415;28;20040;-88
2022/05/22 02:48:49;;;;;;;13.70;5.55;;;;;;;20.64;92.85;100228.22;5019606;28;20405;-89
2022/05/22 02:51:18;;;;;;;16.00;5.30;;;;;;;20.80;91.53;100222.13;5020599;28;20033;-89
2022/05/22 02:53:44;;;;;;;12.65;5.57;;;;;;;20.96;90.15;100213.31;5004679;28;20087;-90
2022/05/22 02:56:21;;;;;;;14.13;5.43;;;;;;;20.98;90.10;100213.09;5053583;28;20030;-89
2022/05/22 02:59:06;;;;;;;9.70;4.68;;;;;;;20.84;90.48;100215.22;5048492;28;20176;-89
2022/05/22 03:01:39;;;;;;;20.60;5.95;;;;;;;20.75;91.05;100216.59;5020513;28;20121;-89
2022/05/22 03:04:05;;;;;;;11.90;5.63;;;;;;;20.82;90.54;100211.91;5018157;28;20067;-87
2022/05/22 03:06:39;;;;;;;13.88;5.40;;;;;;;20.63;92.06;100218.50;5018803;28;20029;-90
2022/05/22 03:09:12;;;;;;;16.88;5.75;;;;;;;20.56;92.39;100223.19;5000866;28;20044;-89
2022/05/22 03:11:42;;;;;;;14.48;5.88;;;;;;;20.74;91.57;100222.25;5017279;28;20029;-88
2022/05/22 03:14:09;;;;;;;12.85;5.60;;;;;;;20.59;92.81;100217.31;5017077;28;20113;-87
2022/05/22 03:16:38;;;;;;;15.18;5.25;;;;;;;20.44;93.50;100233.13;5016915;28;20033;-88
2022/05/22 03:19:30;;;;;;;16.75;5.18;;;;;;;20.62;92.38;100224.91;5017564;28;20061;-90
2022/05/22 03:21:56;;;;;;;18.80;6.22;;;;;;;20.66;91.89;100226.09;5016704;28;20045;-88
2022/05/22 03:24:22;;;;;;;16.17;5.38;;;;;;;20.56;92.29;100223.19;5016396;28;20037;-89
2022/05/22 03:26:50;;;;;;;15.95;5.38;;;;;;;20.68;91.42;100229.41;5017050;28;20025;-88
2022/05/22 03:29:16;;;;;;;13.35;5.22;;;;;;;20.67;91.31;100227.75;5034304;28;20034;-90
2022/05/22 03:31:42;;;;;;;21.98;5.85;;;;;;;20.86;89.66;100223.88;5016703;28;20040;-89
2022/05/22 03:34:07;;;;;;;11.20;5.80;;;;;;;20.62;91.21;100231.13;5017044;28;20045;-90
2022/05/22 03:36:40;;;;;;;19.40;6.30;;;;;;;20.55;91.42;100229.59;5016522;28;20032;-88
2022/05/22 03:39:07;;;;;;;14.20;5.63;;;;;;;20.50;91.91;100226.81;5016167;28;20038;-88
2022/05/22 03:41:34;;;;;;;15.40;5.88;;;;;;;20.52;91.50;100230.91;5034185;28;20080;-86
2022/05/22 03:44:00;;;;;;;12.50;5.90;;;;;;;20.47;92.33;100232.66;5016457;28;20048;-90
2022/05/22 03:46:36;;;;;;;18.17;6.30;;;;;;;20.56;90.91;100236.63;5016473;28;20033;-88
2022/05/22 03:49:01;;;;;;;14.38;5.28;;;;;;;20.73;90.17;100229.50;5016355;28;20025;-90
2022/05/22 03:51:34;;;;;;;;;;;;;;;20.60;90.42;100227.88;5017379;28;20544;-89
2022/05/22 03:54:00;;;;;;;11.07;5.35;;;;;;;20.45;91.67;100227.50;5017259;28;19960;-90
2022/05/22 03:56:31;;;;;;;12.97;5.20;;;;;;;20.50;91.45;100224.13;5016606;28;20058;-88
2022/05/22 03:58:57;;;;;;;14.90;5.70;;;;;;;20.25;93.07;100228.88;5016812;28;20547;-89
2022/05/22 04:01:23;;;;;;;13.10;5.00;;;;;;;20.53;91.73;100231.72;5017939;28;20484;-90
2022/05/22 04:03:56;;;;;;;19.23;6.20;;;;;;;20.48;90.61;100234.31;5016666;28;20042;-87
2022/05/22 04:06:23;;;;;;;16.52;5.45;;;;;;;20.35;91.72;100234.53;5016761;28;20044;-87
2022/05/22 04:08:49;;;;;;;20.20;6.13;;;;;;;20.53;89.96;100229.03;5017109;28;20029;-88
2022/05/22 04:11:18;;;;;;;19.10;5.57;;;;;;;20.47;90.39;100229.97;5016679;28;20045;-88
2022/05/22 04:13:46;;;;;;;12.02;5.40;;;;;;;20.50;90.07;100221.44;5027766;28;20093;-87
2022/05/22 04:16:13;;;;;;;12.57;5.20;;;;;;;20.46;89.65;100221.06;5038187;28;20034;-87
2022/05/22 04:18:39;;;;;;;18.27;5.57;;;;;;;20.62;89.32;100227.63;5026750;28;20033;-88
2022/05/22 04:21:08;;;;;;;13.07;5.00;;;;;;;20.51;89.73;100239.22;5021035;28;20033;-88
2022/05/22 04:26:37;;;;;;;13.65;5.43;;;;;;;20.56;90.26;100237.47;5021373;28;19924;-90
2022/05/22 04:29:06;;;;;;;13.30;5.57;;;;;;;20.79;88.32;100242.00;5021700;28;20153;-91
2022/05/22 04:31:33;;;;;;;16.45;5.90;;;;;;;20.87;87.77;100244.38;5021560;28;20435;-87
2022/05/22 04:34:19;;;;;;;21.13;6.20;;;;;;;20.80;88.44;100248.22;5036263;28;20052;-87
2022/05/22 04:36:45;;;;;;;13.68;5.90;;;;;;;20.65;89.23;100262.16;5001735;28;20029;-89
2022/05/22 04:39:29;;;;;;;23.38;6.85;;;;;;;20.36;92.17;100258.50;5018019;28;20048;-88
2022/05/22 04:42:02;;;;;;;18.45;6.35;;;;;;;20.40;92.77;100259.69;5017874;28;20132;-88
2022/05/22 04:44:28;;;;;;;20.00;6.25;;;;;;;20.54;91.84;100265.69;5017976;28;20125;-88
2022/05/22 04:47:09;;;;;;;15.25;6.72;;;;;;;20.78;89.99;100261.91;5018336;28;20043;-88
2022/05/22 04:49:35;;;;;;;17.50;6.32;;;;;;;20.70;91.50;100269.53;5018145;28;20037;-87
2022/05/22 04:52:02;;;;;;;17.20;6.50;;;;;;;20.65;91.80;100264.84;5001953;28;20036;-90
2022/05/22 04:54:27;;;;;;;16.50;6.70;;;;;;;20.65;92.07;100261.34;5018356;28;20420;-88
2022/05/22 04:57:01;;;;;;;19.88;6.75;;;;;;;20.72;91.81;100248.56;5035704;28;20041;-89
2022/05/22 04:59:27;;;;;;;15.05;5.95;;;;;;;21.00;89.90;100259.47;5018155;28;20029;-86
2022/05/22 05:01:52;;;;;;;15.40;6.20;;;;;;;21.12;89.38;100252.19;5035649;28;20026;-89
2022/05/22 05:04:39;;;;;;;14.07;6.03;;;;;;;21.23;88.91;100247.84;5004331;28;20087;-87
2022/05/22 05:07:10;;;;;;;16.42;6.78;;;;;;;21.16;89.71;100252.53;5017903;28;20038;-89
2022/05/22 05:09:54;;;;;;;14.25;5.75;;;;;;;21.25;89.92;100246.53;5035912;28;20130;-89
2022/05/22 05:12:55;;;;;;;18.10;6.63;;;;;;;21.46;88.72;100253.16;4994212;28;20052;-87
2022/05/22 05:15:29;;;;;;;18.15;6.13;;;;;;;21.34;89.63;100247.00;4999037;28;20050;-88
2022/05/22 05:18:04;;;;;;;18.70;6.40;;;;;;;21.52;89.05;100252.22;5002553;28;20053;-87
2022/05/22 05:20:33;;;;;;;15.30;6.50;;;;;;;21.76;87.76;100259.16;5017449;28;20400;-87
2022/05/22 05:23:06;;;;;;;14.50;6.57;;;;;;;21.75;88.49;100252.13;5017880;28;20037;-93
2022/05/22 05:25:45;;;;;;;17.50;6.22;;;;;;;21.79;88.37;100253.28;5017689;28;20034;-89
2022/05/22 05:28:11;;;;;;;16.50;6.25;;;;;;;21.87;88.96;100252.91;5035782;28;20033;-88
2022/05/22 05:30:37;;;;;;;20.27;6.05;;;;;;;21.97;88.44;100255.81;5032053;28;20025;-87
2022/05/22 05:33:02;;;;;;;17.02;6.80;;;;;;;22.04;87.98;100256.44;5044983;28;20076;-87
2022/05/22 05:35:51;;;;;;;20.90;6.60;;;;;;;22.21;87.38;100263.75;5041171;28;20044;-88
2022/05/22 05:38:37;;;;;;;16.48;6.15;;;;;;;22.41;86.28;100258.69;5037377;28;20042;-88
2022/05/22 05:41:03;;;;;;;13.73;6.07;;;;;;;22.41;85.90;100250.59;5021315;28;20053;-90
2022/05/22 05:43:29;;;;;;;15.68;6.43;;;;;;;22.56;85.75;100264.34;5036065;28;20065;-86
2022/05/22 05:45:55;;;;;;;19.42;6.53;;;;;;;22.64;85.97;100261.22;5049726;28;20120;-90
2022/05/22 05:48:21;;;;;;;14.50;6.03;;;;;;;22.93;83.64;100265.47;5042867;28;20101;-92
2022/05/22 05:51:13;;;;;;;19.13;7.13;;;;;;;23.01;82.46;100262.31;5040875;28;20053;-93
2022/05/22 05:53:46;;;;;;;12.32;6.00;;;;;;;23.28;82.26;100262.41;5048403;28;20476;-91
2022/05/22 05:56:13;;;;;;;15.40;6.15;;;;;;;23.36;80.98;100258.47;5045015;28;20044;-92
2022/05/22 05:58:42;;;;;;;14.73;5.97;;;;;;;23.65;79.50;100258.03;5048183;28;20112;-91
2022/05/22 06:01:35;;;;;;;;;;;;;;;23.97;78.28;100255.38;5012675;28;20033;-89
2022/05/22 06:04:01;;;;;;;15.13;5.80;;;;;;;24.14;75.51;100261.53;5028125;28;19996;-92
2022/05/22 06:06:27;;;;;;;15.40;5.45;;;;;;;24.26;74.78;100264.03;5038259;28;20057;-90
2022/05/22 06:08:56;;;;;;;23.40;5.63;;;;;;;24.46;73.92;100268.84;5024436;28;20490;-92
2022/05/22 06:11:42;;;;;;;13.00;4.95;;;;;;;24.85;72.59;100269.41;5007148;28;20034;-90
2022/05/22 06:14:30;;;;;;;16.45;5.03;;;;;;;25.23;70.32;100273.66;5028291;28;20511;-89
2022/05/22 06:16:57;;;;;;;7.95;4.75;;;;;;;25.86;66.05;100280.69;5021307;28;20029;-90
2022/05/22 06:20:13;;;;;;;15.02;5.20;;;;;;;26.20;65.09;100281.88;5026815;28;20037;-90
2022/05/22 06:22:22;;;;;;;9.00;5.07;;;;;;;25.86;66.15;100284.25;5024454;28;20042;-88
2022/05/22 06:24:50;;;;;;;10.43;4.60;;;;;;;26.34;64.63;100282.16;5035800;28;20164;-88
2022/05/22 06:27:20;;;;;;;13.20;6.50;;;;;;;26.55;62.90;100286.50;5035552;28;20037;-90
2022/05/22 06:30:13;;;;;;;12.50;6.32;;;;;;;26.46;60.92;100283.53;5018780;28;20060;-87
2022/05/22 06:32:53;;;;;;;12.90;7.07;;;;;;;26.67;59.00;100274.28;5027827;28;20091;-85
2022/05/22 06:35:29;;;;;;;17.13;6.18;;;;;;;26.62;60.04;100276.16;5043079;28;20510;-86
2022/05/22 06:41:30;;;;;;;17.08;6.70;;;;;;;26.90;59.33;100266.66;5035285;28;20072;-88
2022/05/22 06:44:13;;;;;;;16.70;7.70;;;;;;;26.92;58.40;100265.28;5026285;28;20033;-89
2022/05/22 06:46:58;;;;;;;18.80;8.98;;;;;;;26.39;60.57;100271.28;5021390;28;20037;-90
2022/05/22 06:49:43;;;;;;;17.40;8.65;;;;;;;25.81;63.45;100262.53;5033616;28;20034;-85
2022/05/22 06:52:33;;;;;;;19.73;9.45;;;;;;;25.40;65.72;100263.44;5017530;28;20021;-89
2022/05/22 06:55:15;;;;;;;22.80;9.15;;;;;;;25.14;67.73;100257.91;5016985;28;20045;-91
2022/05/22 06:58:05;;;;;;;17.65;8.95;;;;;;;25.47;66.44;100258.59;5013432;28;20033;-88
2022/05/22 07:00:54;;;;;;;17.02;9.25;;;;;;;25.27;66.78;100259.31;5019389;28;20029;-88
2022/05/22 07:03:34;;;;;;;23.25;10.32;;;;;;;25.39;66.48;100250.97;5016980;28;20045;-87
2022/05/22 07:06:17;;;;;;;17.85;9.50;;;;;;;25.47;66.25;100247.72;5015649;28;20034;-85
2022/05/22 07:09:05;;;;;;;22.58;10.52;;;;;;;25.38;65.71;100250.16;5024183;28;20052;-90
2022/05/22 07:11:54;;;;;;;24.33;11.15;;;;;;;25.18;67.83;100244.63;5036163;28;20041;-88
2022/05/22 07:14:28;;;;;;;21.08;11.52;;;;;;;25.12;67.97;100238.34;5015457;28;20491;-88
2022/05/22 07:17:13;;;;;;;20.02;11.85;;;;;;;25.68;66.36;100254.88;5015061;28;20587;-84
2022/05/22 07:19:50;;;;;;;20.65;10.77;;;;;;;26.07;64.76;100250.59;5015368;28;20796;-86
2022/05/22 07:22:45;;;;;;;21.48;11.07;;;;;;;26.08;64.47;100254.94;5022413;28;20041;-89
2022/05/22 07:25:33;;;;;;;25.38;11.10;;;;;;;26.13;63.88;100251.41;5023723;28;20069;-89
2022/05/22 07:28:04;;;;;;;21.10;10.80;;;;;;;26.01;64.01;100250.88;5015026;28;20232;-89
2022/05/22 07:30:49;;;;;;;25.45;11.30;;;;;;;26.00;63.41;100247.34;5038359;28;20048;-85
2022/05/22 07:33:32;;;;;;;19.73;10.50;;;;;;;25.95;64.48;100244.59;5029484;28;20072;-86
2022/05/22 07:36:18;;;;;;;21.70;10.73;;;;;;;26.07;62.72;100242.47;5034315;28;20027;-86
2022/05/22 07:39:03;;;;;;;20.13;10.50;;;;;;;26.49;61.42;100244.91;5051130;28;20044;-86
2022/05/22 07:41:48;;;;;;;16.02;9.00;;;;;;;26.98;60.28;100252.50;5023393;28;20052;-84
2022/05/22 07:44:42;;;;;;;18.08;8.75;;;;;;;27.15;60.03;100248.34;5015136;28;20038;-85
2022/05/22 07:47:19;;;;;;;20.50;9.50;;;;;;;26.95;59.51;100247.56;5028647;28;20877;-83
2022/05/22 07:50:17;;;;;;;20.88;8.95;;;;;;;26.64;61.13;100244.09;5054135;28;20072;-86
2022/05/22 07:53:02;;;;;;;17.60;10.02;;;;;;;26.66;60.06;100250.06;5057787;28;20048;-87
2022/05/22 07:55:39;;;;;;;19.08;9.77;;;;;;;26.68;61.04;100245.19;5054696;28;20041;-84
2022/05/22 07:58:25;;;;;;;23.52;10.23;;;;;;;26.72;59.20;100249.78;5055366;28;20525;-85
2022/05/22 08:00:59;;;;;;;16.48;10.18;;;;;;;26.87;59.88;100246.25;5056942;28;20037;-91
2022/05/22 08:03:48;;;;;;;25.13;9.90;;;;;;;26.85;59.75;100253.88;5048261;28;20389;-91
2022/05/22 08:06:34;;;;;;;24.35;10.70;;;;;;;26.77;59.05;100240.00;5061662;28;20045;-90
2022/05/22 08:09:07;;;;;;;22.70;10.02;;;;;;;26.78;59.56;100241.63;5049698;28;20037;-90
2022/05/22 08:11:35;;;;;;;20.05;9.68;;;;;;;27.02;58.52;100243.47;5049657;28;20037;-88
2022/05/22 08:14:05;;;;;;;17.35;9.77;;;;;;;27.21;57.48;100241.78;5046167;28;20021;-85
2022/05/22 08:16:52;;;;;;;17.50;8.90;;;;;;;28.18;54.53;100244.81;5053147;28;20053;-90
2022/05/22 08:19:32;;;;;;;17.83;8.90;;;;;;;28.48;52.96;100243.72;5037544;28;20109;-87
2022/05/22 08:22:15;;;;;;;20.88;8.85;;;;;;;28.09;55.00;100235.63;5028957;28;20488;-86
2022/05/22 08:25:03;;;;;;;15.50;8.90;;;;;;;28.08;53.55;100240.25;5046728;28;20153;-87
2022/05/22 08:27:29;;;;;;;15.90;8.80;;;;;;;28.12;54.79;100235.03;5028508;28;20036;-87
2022/05/22 08:29:55;;;;;;;27.98;9.45;;;;;;;28.07;53.99;100229.66;5045940;28;20041;-88
2022/05/22 08:32:23;;;;;;;13.93;7.78;;;;;;;28.56;53.31;100224.03;5013739;28;20040;-92
2022/05/22 08:34:54;;;;;;;16.02;7.93;;;;;;;28.69;52.79;100228.84;5072075;28;20081;-89
2022/05/22 08:37:19;;;;;;;25.85;9.00;;;;;;;28.82;52.78;100219.97;5054524;28;20037;-90
2022/05/22 08:39:45;;;;;;;20.77;8.93;;;;;;;28.61;52.38;100215.78;5052841;28;20060;-90
2022/05/22 08:42:20;;;;;;;23.35;9.05;;;;;;;28.93;51.57;100223.41;5061717;28;20025;-93
2022/05/22 08:50:16;;;;;;;17.58;9.93;;;;;;;28.78;52.90;100216.19;4558375;26;20041;-88
2022/05/22 08:53:30;;;;;;;23.33;9.10;;;;;;;29.09;51.71;100214.75;5060447;28;20112;-91
2022/05/22 08:59:23;;;;;;;17.35;9.32;;;;;;;28.43;53.37;100211.06;5064167;28;20048;-89
2022/05/22 09:02:10;;;;;;;;;;;;;;;28.16;54.89;100215.13;5079159;28;20048;-89
2022/05/22 09:13:17;;;;;;;19.42;11.50;;;;;;;28.37;54.57;100206.78;4593720;26;20040;-91
2022/05/22 09:16:07;;;;;;;14.50;9.32;;;;;;;28.27;55.49;100215.03;5075954;28;20029;-90
2022/05/22 09:19:14;;;;;;;20.42;10.57;;;;;;;28.52;55.27;100212.06;5059318;28;20044;-89
2022/05/22 09:21:41;;;;;;;17.25;8.82;;;;;;;28.50;54.18;100211.56;5075977;28;20036;-89
2022/05/22 09:24:55;;;;;;;25.23;10.85;;;;;;;28.26;55.55;100213.41;5041566;28;20033;-91
2022/05/22 09:27:32;;;;;;;23.17;11.02;;;;;;;28.34;55.32;100213.59;4966237;29;20027;-89
2022/05/22 09:30:18;;;;;;;33.38;12.18;;;;;;;27.97;57.09;100210.63;4960822;29;20047;-88
2022/05/22 09:33:40;;;;;;;31.92;13.13;;;;;;;27.82;56.40;100218.88;4977044;29;20045;-92
2022/05/22 09:36:44;;;;;;;29.02;13.13;;;;;;;27.93;57.37;100217.72;4954005;29;20050;-93
2022/05/22 09:45:36;;;;;;;19.20;10.95;;;;;;;28.31;56.26;100216.88;5089342;22;20057;-90
2022/05/22 09:48:13;;;;;;;17.90;12.20;;;;;;;28.41;56.04;100213.25;5021728;28;20054;-90
2022/05/22 09:51:04;;;;;;;27.88;13.13;;;;;;;28.79;54.02;100209.63;5017565;28;20017;-91
2022/05/22 09:53:50;;;;;;;20.05;12.65;;;;;;;28.97;52.87;100203.41;5045176;28;20030;-89
2022/05/22 09:56:35;;;;;;;24.15;11.60;;;;;;;29.38;52.96;100205.66;5057255;28;20041;-89
2022/05/22 09:59:19;;;;;;;26.10;11.32;;;;;;;30.01;51.55;100206.94;5044982;28;20108;-89
2022/05/22 10:02:15;;;;;;;19.95;10.65;;;;;;;30.45;49.95;100214.69;5030439;28;20041;-90
2022/05/22 10:04:49;;;;;;;22.83;14.15;;;;;;;30.23;49.21;100198.88;5038477;28;20060;-89
2022/05/22 10:07:53;;;;;;;19.45;13.45;;;;;;;30.28;50.41;100198.00;5063274;23;20050;-89
2022/05/22 10:13:57;;;;;;;26.08;13.75;;;;;;;29.85;51.82;100191.06;5085639;22;20057;-92
2022/05/22 10:17:00;;;;;;;22.13;13.02;;;;;;;30.32;50.88;100196.31;5067949;28;20068;-90
2022/05/22 10:19:50;;;;;;;22.13;11.98;;;;;;;30.14;50.94;100194.41;5168979;23;20085;-88
2022/05/22 10:22:35;;;;;;;21.15;11.80;;;;;;;29.86;50.94;100192.69;5090410;22;20065;-92
2022/05/22 10:29:30;;;;;;;22.92;15.82;;;;;;;30.11;50.37;100195.81;5468163;22;20061;-89
2022/05/22 10:32:30;;;;;;;20.63;12.95;;;;;;;29.91;51.60;100189.88;4997216;28;20050;-88
2022/05/22 10:37:44;;;;;;;25.00;13.25;;;;;;;30.15;50.42;100179.63;5049778;28;20042;-90
2022/05/22 10:43:28;;;;;;;25.58;12.73;;;;;;;30.51;49.83;100188.03;5053343;28;20055;-86
2022/05/22 10:45:54;;;;;;;24.15;14.23;;;;;;;29.82;51.12;100180.72;5033655;28;20041;-86
2022/05/22 10:48:23;;;;;;;30.02;12.20;;;;;;;29.48;52.22;100173.56;5054209;28;20029;-88
2022/05/22 10:51:06;;;;;;;24.33;13.95;;;;;;;29.02;53.35;100167.88;5047326;28;20049;-90
2022/05/22 10:53:52;;;;;;;24.10;13.00;;;;;;;29.03;53.10;100165.97;5045509;28;20048;-85
2022/05/22 10:56:38;;;;;;;29.20;14.38;;;;;;;28.74;53.54;100155.13;5050829;28;20052;-83
2022/05/22 10:59:07;;;;;;;23.05;13.30;;;;;;;28.78;54.80;100150.72;5032338;28;20040;-87
2022/05/22 11:01:37;;;;;;;21.10;12.32;;;;;;;29.07;54.56;100145.97;5015423;28;20037;-82
2022/05/22 11:04:08;;;;;;;21.08;10.68;;;;;;;29.34;53.27;100145.38;5049429;28;20092;-85
2022/05/22 11:06:58;;;;;;;21.67;11.68;;;;;;;29.48;51.90;100145.44;5031623;28;20041;-83
2022/05/22 11:09:49;;;;;;;18.35;10.57;;;;;;;30.06;51.26;100137.72;5045333;28;20038;-83
2022/05/22 11:12:20;;;;;;;19.42;11.77;;;;;;;30.14;51.32;100140.56;5021498;28;20056;-85
2022/05/22 11:14:46;;;;;;;19.43;9.80;;;;;;;30.44;50.32;100139.22;5020507;28;20405;-85
2022/05/22 11:17:14;;;;;;;28.98;11.25;;;;;;;30.79;47.71;100139.63;5039556;28;20132;-87
2022/05/22 11:19:44;;;;;;;25.33;10.68;;;;;;;30.88;46.91;100133.13;5024393;28;20063;-86
2022/05/22 11:22:58;;;;;;;21.95;9.38;;;;;;;30.63;47.87;100136.38;5041507;28;20550;-91
2022/05/22 11:26:10;;;;;;;23.63;8.77;;;;;;;29.71;49.56;100131.69;4961872;28;20396;-87
2022/05/22 11:28:58;;;;;;;;;;;;;;;29.68;49.59;100126.00;4964002;29;20129;-86
2022/05/22 11:32:05;;;;;;;22.67;9.52;;;;;;;29.72;50.25;100110.66;4967336;29;19953;-85
2022/05/22 11:34:51;;;;;;;22.77;9.07;;;;;;;29.98;51.11;100106.41;4955370;28;20466;-86
2022/05/22 11:37:39;;;;;;;18.45;9.95;;;;;;;29.66;51.47;100103.66;5028650;28;20053;-85
2022/05/22 11:40:40;;;;;;;15.60;10.60;;;;;;;29.33;52.03;100099.25;5008455;28;20044;-88
2022/05/22 11:43:14;;;;;;;16.90;8.77;;;;;;;29.18;52.89;100092.88;5006185;28;20044;-86
2022/05/22 11:45:55;;;;;;;17.60;7.72;;;;;;;29.23;52.32;100076.41;5024209;28;20044;-84
2022/05/22 11:48:26;;;;;;;19.30;8.93;;;;;;;29.19;51.96;100080.88;5023528;28;20382;-85
2022/05/22 11:51:14;;;;;;;16.77;8.50;;;;;;;29.27;52.67;100082.13;5025734;28;20433;-84
2022/05/22 11:54:07;;;;;;;11.35;7.40;;;;;;;29.58;51.24;100082.47;5025235;28;20096;-88
2022/05/22 11:56:42;;;;;;;16.13;7.38;;;;;;;29.54;51.22;100081.44;5006462;28;20108;-84
2022/05/22 11:59:15;;;;;;;18.55;6.90;;;;;;;29.40;51.82;100086.06;5029986;28;20061;-88
2022/05/22 12:01:58;;;;;;;16.88;7.70;;;;;;;29.26;50.75;100082.44;5018843;28;20094;-85
2022/05/22 12:04:43;;;;;;;17.77;8.38;;;;;;;29.07;51.49;100082.38;5040041;28;20037;-85
2022/05/22 12:07:38;;;;;;;22.67;8.65;;;;;;;29.19;51.75;100072.69;5011217;28;20423;-88
2022/05/22 12:10:16;;;;;;;21.80;7.75;;;;;;;29.03;51.58;100075.91;5042049;28;20750;-85
2022/05/22 12:12:59;;;;;;;16.90;8.13;;;;;;;29.17;51.57;100072.16;5035502;28;20503;-89
2022/05/22 12:15:59;;;;;;;22.20;6.63;;;;;;;29.34;50.82;100065.38;5036291;28;20033;-90
2022/05/22 12:18:57;;;;;;;418.17;22.42;;;;;;;29.28;52.06;100067.38;5024166;23;20027;-89
2022/05/22 12:21:47;;;;;;;43.53;8.05;;;;;;;29.52;52.05;100059.09;5062416;28;20087;-91
2022/05/22 12:24:33;;;;;;;14.23;6.10;;;;;;;29.75;50.51;100066.34;5036754;28;20061;-86
2022/05/22 12:27:01;;;;;;;46.47;7.97;;;;;;;29.80;49.47;100063.50;5048774;28;20037;-88
2022/05/22 12:29:42;;;;;;;68.05;8.55;;;;;;;29.82;49.97;100055.84;5059688;28;20483;-89
2022/05/22 12:32:21;;;;;;;23.42;7.80;;;;;;;29.77;49.43;100058.63;5047706;28;20032;-88
2022/05/22 12:34:54;;;;;;;21.38;7.72;;;;;;;29.79;49.85;100050.97;5030808;28;20057;-87
2022/05/22 12:37:35;;;;;;;125.13;9.88;;;;;;;29.72;50.56;100045.09;5049122;28;20043;-86
2022/05/22 12:40:13;;;;;;;16.95;6.32;;;;;;;29.80;50.80;100041.66;5052647;28;20142;-86
2022/05/22 12:42:45;;;;;;;23.13;6.70;;;;;;;30.09;50.53;100027.78;5031760;28;20059;-88